sensor_id;sensor_type;location;lat;lon;timestamp;pressure;altitude;pressure_sealevel;temperature;humidity
11212;BME280;5663;50.864;12.096;2023-04-07T00:01:19;99540.59;;;2.53;59.79
11212;BME280;5663;50.864;12.096;2023-04-07T00:03:47;99540.59;;;2.53;60.03
11212;BME280;5663;50.864;12.096;2023-04-07T00:06:16;99541.47;;;2.52;60.10
11212;BME280;5663;50.864;12.096;2023-04-07T00:08:44;99544.91;;;2.52;59.98
11212;BME280;5663;50.864;12.096;2023-04-07T00:11:13;99536.47;;;2.42;59.89
11212;BME280;5663;50.864;12.096;2023-04-07T00:13:41;99534.84;;;2.37;60.00
11212;BME280;5663;50.864;12.096;2023-04-07T00:16:09;99534.84;;;2.37;59.98
11212;BME280;5663;50.864;12.096;2023-04-07T00:18:36;99528.03;;;2.34;60.14
11212;BME280;5663;50.864;12.096;2023-04-07T00:21:04;99533.16;;;2.34;60.18
11212;BME280;5663;50.864;12.096;2023-04-07T00:23:32;99534.09;;;2.30;60.33
11212;BME280;5663;50.864;12.096;2023-04-07T00:26:00;99532.44;;;2.26;60.18
11212;BME280;5663;50.864;12.096;2023-04-07T00:28:29;99536.75;;;2.24;60.13
11212;BME280;5663;50.864;12.096;2023-04-07T00:30:57;99529.09;;;2.21;60.14
11212;BME280;5663;50.864;12.096;2023-04-07T00:33:24;99526.56;;;2.18;60.11
11212;BME280;5663;50.864;12.096;2023-04-07T00:35:52;99527.47;;;2.14;60.36
11212;BME280;5663;50.864;12.096;2023-04-07T00:38:23;99512.19;;;2.08;60.47
11212;BME280;5663;50.864;12.096;2023-04-07T00:40:56;99518.25;;;2.02;60.76
11212;BME280;5663;50.864;12.096;2023-04-07T00:43:26;99503.84;;;1.93;60.82
11212;BME280;5663;50.864;12.096;2023-04-07T00:45:55;99495.31;;;1.91;60.63
11212;BME280;5663;50.864;12.096;2023-04-07T00:48:23;99519.97;;;2.02;60.74
11212;BME280;5663;50.864;12.096;2023-04-07T00:50:51;99513.97;;;2.03;60.67
11212;BME280;5663;50.864;12.096;2023-04-07T00:53:19;99515.69;;;2.02;60.62
11212;BME280;5663;50.864;12.096;2023-04-07T00:55:47;99508.94;;;1.96;60.76
11212;BME280;5663;50.864;12.096;2023-04-07T00:58:15;99507.22;;;1.97;60.63
11212;BME280;5663;50.864;12.096;2023-04-07T01:00:48;99507.22;;;1.95;60.77
11212;BME280;5663;50.864;12.096;2023-04-07T01:03:22;99511.53;;;1.93;60.49
11212;BME280;5663;50.864;12.096;2023-04-07T01:05:54;99499.66;;;1.86;60.73
11212;BME280;5663;50.864;12.096;2023-04-07T01:08:31;99496.22;;;1.87;60.64
11212;BME280;5663;50.864;12.096;2023-04-07T01:11:05;99496.28;;;1.83;60.95
11212;BME280;5663;50.864;12.096;2023-04-07T01:13:37;99500.56;;;1.84;60.86
11212;BME280;5663;50.864;12.096;2023-04-07T01:16:12;99492.06;;;1.80;60.78
11212;BME280;5663;50.864;12.096;2023-04-07T01:18:46;99496.31;;;1.81;61.00
11212;BME280;5663;50.864;12.096;2023-04-07T01:21:16;99495.47;;;1.81;60.97
11212;BME280;5663;50.864;12.096;2023-04-07T01:23:54;99501.44;;;1.81;60.87
11212;BME280;5663;50.864;12.096;2023-04-07T01:26:29;99485.31;;;1.73;60.66
11212;BME280;5663;50.864;12.096;2023-04-07T01:29:10;99502.38;;;1.74;60.99
11212;BME280;5663;50.864;12.096;2023-04-07T01:31:42;99482.03;;;1.62;60.97
11212;BME280;5663;50.864;12.096;2023-04-07T01:34:12;99487.94;;;1.68;61.05
11212;BME280;5663;50.864;12.096;2023-04-07T01:36:41;99488.81;;;1.66;60.83
11212;BME280;5663;50.864;12.096;2023-04-07T01:39:10;99470.16;;;1.55;60.80
11212;BME280;5663;50.864;12.096;2023-04-07T01:41:39;99485.44;;;1.64;61.03
11212;BME280;5663;50.864;12.096;2023-04-07T01:44:08;99479.47;;;1.62;61.01
11212;BME280;5663;50.864;12.096;2023-04-07T01:46:37;99463.38;;;1.51;61.09
11212;BME280;5663;50.864;12.096;2023-04-07T01:49:07;99481.22;;;1.60;61.08
11212;BME280;5663;50.864;12.096;2023-04-07T01:51:35;99483.81;;;1.55;61.14
11212;BME280;5663;50.864;12.096;2023-04-07T01:54:03;99483.84;;;1.54;61.27
11212;BME280;5663;50.864;12.096;2023-04-07T01:56:32;99472.84;;;1.45;61.02
11212;BME280;5663;50.864;12.096;2023-04-07T01:59:00;99483.91;;;1.47;61.26
11212;BME280;5663;50.864;12.096;2023-04-07T02:01:28;99466.13;;;1.37;61.29
11212;BME280;5663;50.864;12.096;2023-04-07T02:04:00;99485.69;;;1.44;61.16
11212;BME280;5663;50.864;12.096;2023-04-07T02:06:39;99477.13;;;1.43;61.29
11212;BME280;5663;50.864;12.096;2023-04-07T02:09:10;99485.72;;;1.39;61.43
11212;BME280;5663;50.864;12.096;2023-04-07T02:11:39;99479.78;;;1.37;61.47
11212;BME280;5663;50.864;12.096;2023-04-07T02:14:09;99482.34;;;1.37;61.34
11212;BME280;5663;50.864;12.096;2023-04-07T02:16:38;99478.94;;;1.35;61.33
11212;BME280;5663;50.864;12.096;2023-04-07T02:19:08;99477.28;;;1.31;61.31
11212;BME280;5663;50.864;12.096;2023-04-07T02:21:38;99385.78;;;0.73;61.42
11212;BME280;5663;50.864;12.096;2023-04-07T02:24:07;99477.34;;;1.28;61.62
11212;BME280;5663;50.864;12.096;2023-04-07T02:26:37;99472.22;;;1.28;61.46
11212;BME280;5663;50.864;12.096;2023-04-07T02:29:05;99473.13;;;1.24;61.73
11212;BME280;5663;50.864;12.096;2023-04-07T02:31:33;99470.56;;;1.24;62.00
11212;BME280;5663;50.864;12.096;2023-04-07T02:34:01;99468.84;;;1.23;61.81
11212;BME280;5663;50.864;12.096;2023-04-07T02:36:29;99468.84;;;1.23;61.74
11212;BME280;5663;50.864;12.096;2023-04-07T02:38:58;99464.63;;;1.19;61.93
11212;BME280;5663;50.864;12.096;2023-04-07T02:41:26;99465.47;;;1.21;61.89
11212;BME280;5663;50.864;12.096;2023-04-07T02:43:54;99459.50;;;1.20;61.72
11212;BME280;5663;50.864;12.096;2023-04-07T02:46:21;99467.19;;;1.19;61.93
11212;BME280;5663;50.864;12.096;2023-04-07T02:48:49;99461.22;;;1.18;62.04
11212;BME280;5663;50.864;12.096;2023-04-07T02:51:17;99462.13;;;1.16;62.04
11212;BME280;5663;50.864;12.096;2023-04-07T02:53:44;99462.97;;;1.15;62.04
11212;BME280;5663;50.864;12.096;2023-04-07T02:56:14;99450.25;;;1.06;62.00
11212;BME280;5663;50.864;12.096;2023-04-07T02:58:42;99435.84;;;0.95;62.28
11212;BME280;5663;50.864;12.096;2023-04-07T03:01:09;99459.59;;;1.11;62.22
11212;BME280;5663;50.864;12.096;2023-04-07T03:03:37;99463.03;;;1.12;62.04
11212;BME280;5663;50.864;12.096;2023-04-07T03:06:07;99460.44;;;1.12;61.97
11212;BME280;5663;50.864;12.096;2023-04-07T03:08:35;99452.78;;;1.10;61.88
11212;BME280;5663;50.864;12.096;2023-04-07T03:11:03;99448.53;;;1.08;62.04
11212;BME280;5663;50.864;12.096;2023-04-07T03:13:32;99457.06;;;1.07;62.17
11212;BME280;5663;50.864;12.096;2023-04-07T03:15:59;99451.94;;;1.07;61.94
11212;BME280;5663;50.864;12.096;2023-04-07T03:18:27;99455.38;;;1.06;62.07
11212;BME280;5663;50.864;12.096;2023-04-07T03:20:55;99451.97;;;1.04;62.24
11212;BME280;5663;50.864;12.096;2023-04-07T03:23:23;99452.03;;;1.01;62.46
11212;BME280;5663;50.864;12.096;2023-04-07T03:25:51;99453.72;;;1.02;62.32
11212;BME280;5663;50.864;12.096;2023-04-07T03:28:19;99441.81;;;0.97;62.06
11212;BME280;5663;50.864;12.096;2023-04-07T03:30:48;99448.63;;;0.98;62.32
11212;BME280;5663;50.864;12.096;2023-04-07T03:33:16;99451.22;;;0.97;62.75
11212;BME280;5663;50.864;12.096;2023-04-07T03:35:44;99450.38;;;0.95;62.45
11212;BME280;5663;50.864;12.096;2023-04-07T03:38:12;99452.97;;;0.93;62.69
11212;BME280;5663;50.864;12.096;2023-04-07T03:40:39;99452.13;;;0.91;62.64
11212;BME280;5663;50.864;12.096;2023-04-07T03:43:07;99457.22;;;0.91;62.52
11212;BME280;5663;50.864;12.096;2023-04-07T03:45:39;99453.84;;;0.92;62.63
11212;BME280;5663;50.864;12.096;2023-04-07T03:48:08;99451.31;;;0.89;62.70
11212;BME280;5663;50.864;12.096;2023-04-07T03:50:37;99448.78;;;0.88;62.76
11212;BME280;5663;50.864;12.096;2023-04-07T03:53:05;99441.97;;;0.85;62.69
11212;BME280;5663;50.864;12.096;2023-04-07T03:55:34;99440.28;;;0.84;62.66
11212;BME280;5663;50.864;12.096;2023-04-07T03:58:02;99452.22;;;0.82;62.62
11212;BME280;5663;50.864;12.096;2023-04-07T04:00:30;99448.84;;;0.80;62.55
11212;BME280;5663;50.864;12.096;2023-04-07T04:02:58;99450.56;;;0.78;62.54
11212;BME280;5663;50.864;12.096;2023-04-07T04:05:27;99457.41;;;0.76;62.84
11212;BME280;5663;50.864;12.096;2023-04-07T04:07:56;99452.31;;;0.73;62.65
11212;BME280;5663;50.864;12.096;2023-04-07T04:10:23;99449.75;;;0.71;62.67
11212;BME280;5663;50.864;12.096;2023-04-07T04:12:51;99456.63;;;0.66;63.00
11212;BME280;5663;50.864;12.096;2023-04-07T04:15:19;99459.19;;;0.66;63.08
11212;BME280;5663;50.864;12.096;2023-04-07T04:17:47;99454.09;;;0.65;63.13
11212;BME280;5663;50.864;12.096;2023-04-07T04:20:15;99465.19;;;0.64;62.87
11212;BME280;5663;50.864;12.096;2023-04-07T04:22:44;99459.25;;;0.62;62.71
11212;BME280;5663;50.864;12.096;2023-04-07T04:25:12;99456.72;;;0.60;62.63
11212;BME280;5663;50.864;12.096;2023-04-07T04:27:39;99462.69;;;0.58;63.08
11212;BME280;5663;50.864;12.096;2023-04-07T04:30:08;99459.28;;;0.56;63.04
11212;BME280;5663;50.864;12.096;2023-04-07T04:32:35;99467.84;;;0.55;63.22
11212;BME280;5663;50.864;12.096;2023-04-07T04:35:03;99468.69;;;0.54;62.88
11212;BME280;5663;50.864;12.096;2023-04-07T04:37:31;99415.25;;;0.23;63.22
11212;BME280;5663;50.864;12.096;2023-04-07T04:40:00;99467.84;;;0.52;62.88
11212;BME280;5663;50.864;12.096;2023-04-07T04:42:29;99470.41;;;0.53;63.28
11212;BME280;5663;50.864;12.096;2023-04-07T04:44:58;99468.69;;;0.54;63.30
11212;BME280;5663;50.864;12.096;2023-04-07T04:47:27;99471.25;;;0.57;63.34
11212;BME280;5663;50.864;12.096;2023-04-07T04:49:55;99469.47;;;0.62;63.15
11212;BME280;5663;50.864;12.096;2023-04-07T04:52:22;99470.31;;;0.65;63.22
11212;BME280;5663;50.864;12.096;2023-04-07T04:54:50;99471.13;;;0.67;63.39
11212;BME280;5663;50.864;12.096;2023-04-07T04:57:19;99471.97;;;0.69;63.39
11212;BME280;5663;50.864;12.096;2023-04-07T04:59:47;99472.78;;;0.76;63.36
11212;BME280;5663;50.864;12.096;2023-04-07T05:02:15;99461.63;;;0.79;63.29
11212;BME280;5663;50.864;12.096;2023-04-07T05:04:48;99471.00;;;0.80;63.12
11212;BME280;5663;50.864;12.096;2023-04-07T05:07:16;99470.16;;;0.81;63.48
11212;BME280;5663;50.864;12.096;2023-04-07T05:09:43;99459.09;;;0.80;63.61
11212;BME280;5663;50.864;12.096;2023-04-07T05:12:11;99462.47;;;0.82;63.49
11212;BME280;5663;50.864;12.096;2023-04-07T05:14:40;99459.00;;;0.86;63.79
11212;BME280;5663;50.864;12.096;2023-04-07T05:17:08;99457.22;;;0.94;63.63
11212;BME280;5663;50.864;12.096;2023-04-07T05:19:36;99451.16;;;1.02;63.61
11212;BME280;5663;50.864;12.096;2023-04-07T05:22:04;99456.22;;;1.06;63.38
11212;BME280;5663;50.864;12.096;2023-04-07T05:24:32;99463.00;;;1.13;63.41
11212;BME280;5663;50.864;12.096;2023-04-07T05:26:59;99467.19;;;1.19;63.51
11212;BME280;5663;50.864;12.096;2023-04-07T05:29:27;99459.50;;;1.20;63.22
11212;BME280;5663;50.864;12.096;2023-04-07T05:31:56;99465.34;;;1.30;63.18
11212;BME280;5663;50.864;12.096;2023-04-07T05:34:24;99455.88;;;1.37;63.37
11212;BME280;5663;50.864;12.096;2023-04-07T05:36:52;99457.47;;;1.45;63.22
11212;BME280;5663;50.864;12.096;2023-04-07T05:39:19;99453.94;;;1.56;63.05
11212;BME280;5663;50.864;12.096;2023-04-07T05:41:47;99458.09;;;1.63;62.83
11212;BME280;5663;50.864;12.096;2023-04-07T05:44:15;99458.03;;;1.69;62.75
11212;BME280;5663;50.864;12.096;2023-04-07T05:46:43;99460.53;;;1.73;62.75
11212;BME280;5663;50.864;12.096;2023-04-07T05:49:13;99379.13;;;1.28;62.54
11212;BME280;5663;50.864;12.096;2023-04-07T05:51:40;99456.16;;;1.80;62.68
11212;BME280;5663;50.864;12.096;2023-04-07T05:54:08;99455.16;;;1.92;62.58
11212;BME280;5663;50.864;12.096;2023-04-07T05:56:35;99449.06;;;1.97;62.64
11212;BME280;5663;50.864;12.096;2023-04-07T05:59:03;99457.53;;;2.03;62.59
11212;BME280;5663;50.864;12.096;2023-04-07T06:01:31;99466.03;;;2.06;62.49
11212;BME280;5663;50.864;12.096;2023-04-07T06:03:58;99463.44;;;2.09;62.49
11212;BME280;5663;50.864;12.096;2023-04-07T06:06:30;99387.97;;;1.67;62.54
11212;BME280;5663;50.864;12.096;2023-04-07T06:08:57;99468.41;;;2.18;62.65
11212;BME280;5663;50.864;12.096;2023-04-07T06:11:25;99466.56;;;2.27;62.73
11212;BME280;5663;50.864;12.096;2023-04-07T06:13:53;99462.19;;;2.33;62.64
11212;BME280;5663;50.864;12.096;2023-04-07T06:16:21;99468.09;;;2.40;62.74
11212;BME280;5663;50.864;12.096;2023-04-07T06:18:49;99448.59;;;2.28;62.82
11212;BME280;5663;50.864;12.096;2023-04-07T06:21:16;99477.34;;;2.49;62.68
11212;BME280;5663;50.864;12.096;2023-04-07T06:23:45;99473.88;;;2.53;62.89
11212;BME280;5663;50.864;12.096;2023-04-07T06:26:13;99468.63;;;2.59;62.56
11212;BME280;5663;50.864;12.096;2023-04-07T06:28:41;99468.47;;;2.66;62.66
11212;BME280;5663;50.864;12.096;2023-04-07T06:31:09;99471.81;;;2.73;62.28
11212;BME280;5663;50.864;12.096;2023-04-07T06:33:37;99468.25;;;2.80;62.63
11212;BME280;5663;50.864;12.096;2023-04-07T06:36:04;99462.94;;;2.89;62.61
11212;BME280;5663;50.864;12.096;2023-04-07T06:38:32;99427.22;;;2.77;62.23
11212;BME280;5663;50.864;12.096;2023-04-07T06:41:01;99465.94;;;3.13;62.09
11212;BME280;5663;50.864;12.096;2023-04-07T06:43:29;99468.06;;;3.36;61.99
11212;BME280;5663;50.864;12.096;2023-04-07T06:45:56;99464.03;;;3.64;61.59
11212;BME280;5663;50.864;12.096;2023-04-07T06:48:24;99467.59;;;3.98;61.90
11212;BME280;5663;50.864;12.096;2023-04-07T06:50:52;99466.91;;;4.27;61.17
11212;BME280;5663;50.864;12.096;2023-04-07T06:53:20;99464.75;;;4.45;60.91
11212;BME280;5663;50.864;12.096;2023-04-07T06:55:47;99468.16;;;4.48;61.07
11212;BME280;5663;50.864;12.096;2023-04-07T06:58:16;99446.03;;;4.39;61.15
11212;BME280;5663;50.864;12.096;2023-04-07T07:00:44;99462.50;;;4.66;60.59
11212;BME280;5663;50.864;12.096;2023-04-07T07:03:12;99465.41;;;4.86;61.13
11212;BME280;5663;50.864;12.096;2023-04-07T07:05:39;99456.25;;;5.09;60.64
11212;BME280;5663;50.864;12.096;2023-04-07T07:08:08;99464.25;;;5.29;60.59
11212;BME280;5663;50.864;12.096;2023-04-07T07:10:35;99454.41;;;5.43;60.55
11212;BME280;5663;50.864;12.096;2023-04-07T07:13:03;99454.06;;;5.56;60.66
11212;BME280;5663;50.864;12.096;2023-04-07T07:15:32;99461.53;;;5.65;60.91
11212;BME280;5663;50.864;12.096;2023-04-07T07:18:00;99462.13;;;5.75;61.05
11212;BME280;5663;50.864;12.096;2023-04-07T07:20:27;99461.81;;;5.84;60.87
11212;BME280;5663;50.864;12.096;2023-04-07T07:22:55;99459.84;;;5.93;60.73
11212;BME280;5663;50.864;12.096;2023-04-07T07:25:23;99462.94;;;6.05;60.60
11212;BME280;5663;50.864;12.096;2023-04-07T07:27:52;99465.22;;;6.14;60.50
11212;BME280;5663;50.864;12.096;2023-04-07T07:30:21;99471.59;;;6.30;60.62
11212;BME280;5663;50.864;12.096;2023-04-07T07:32:52;99460.91;;;6.43;60.39
11212;BME280;5663;50.864;12.096;2023-04-07T07:35:20;99483.22;;;6.70;60.67
11212;BME280;5663;50.864;12.096;2023-04-07T07:37:51;99478.81;;;6.99;60.35
11212;BME280;5663;50.864;12.096;2023-04-07T07:40:19;99473.56;;;7.25;59.72
11212;BME280;5663;50.864;12.096;2023-04-07T07:42:46;99437.97;;;7.32;60.05
11212;BME280;5663;50.864;12.096;2023-04-07T07:45:14;99449.22;;;7.54;58.65
11212;BME280;5663;50.864;12.096;2023-04-07T07:47:44;99475.66;;;7.86;58.60
11212;BME280;5663;50.864;12.096;2023-04-07T07:50:14;99476.56;;;8.07;57.98
11212;BME280;5663;50.864;12.096;2023-04-07T07:52:43;99473.91;;;8.30;57.81
11212;BME280;5663;50.864;12.096;2023-04-07T07:55:10;99473.00;;;8.53;57.33
11212;BME280;5663;50.864;12.096;2023-04-07T07:57:39;99457.66;;;8.69;57.08
11212;BME280;5663;50.864;12.096;2023-04-07T08:00:08;99471.16;;;8.98;56.42
11212;BME280;5663;50.864;12.096;2023-04-07T08:02:35;99476.59;;;9.12;55.36
11212;BME280;5663;50.864;12.096;2023-04-07T08:05:05;99472.53;;;9.25;55.55
11212;BME280;5663;50.864;12.096;2023-04-07T08:07:36;99475.63;;;9.33;54.76
11212;BME280;5663;50.864;12.096;2023-04-07T08:10:04;99464.78;;;9.44;54.39
11212;BME280;5663;50.864;12.096;2023-04-07T08:12:33;99463.53;;;9.53;53.49
11212;BME280;5663;50.864;12.096;2023-04-07T08:15:06;99470.75;;;9.65;53.52
11212;BME280;5663;50.864;12.096;2023-04-07T08:17:38;99466.75;;;9.77;52.98
11212;BME280;5663;50.864;12.096;2023-04-07T08:20:09;99472.44;;;9.85;52.83
11212;BME280;5663;50.864;12.096;2023-04-07T08:22:38;99465.22;;;9.92;52.42
11212;BME280;5663;50.864;12.096;2023-04-07T08:25:07;99470.13;;;9.98;52.27
11212;BME280;5663;50.864;12.096;2023-04-07T08:27:36;99469.59;;;10.08;52.11
11212;BME280;5663;50.864;12.096;2023-04-07T08:30:05;99471.72;;;10.19;51.49
11212;BME280;5663;50.864;12.096;2023-04-07T08:32:35;99467.63;;;10.32;51.43
11212;BME280;5663;50.864;12.096;2023-04-07T08:35:04;99480.03;;;10.45;51.53
11212;BME280;5663;50.864;12.096;2023-04-07T08:37:32;99470.09;;;10.53;51.17
11212;BME280;5663;50.864;12.096;2023-04-07T08:40:02;99446.78;;;10.51;50.51
11212;BME280;5663;50.864;12.096;2023-04-07T08:42:31;99477.47;;;10.79;50.77
11212;BME280;5663;50.864;12.096;2023-04-07T08:45:02;99469.81;;;10.94;49.94
11212;BME280;5663;50.864;12.096;2023-04-07T08:47:31;99465.81;;;11.04;48.82
11212;BME280;5663;50.864;12.096;2023-04-07T08:50:01;99465.16;;;11.16;48.42
11212;BME280;5663;50.864;12.096;2023-04-07T08:52:32;99466.22;;;11.29;48.52
11212;BME280;5663;50.864;12.096;2023-04-07T08:55:05;99468.78;;;11.47;47.50
11212;BME280;5663;50.864;12.096;2023-04-07T08:57:35;99469.81;;;11.60;46.24
11212;BME280;5663;50.864;12.096;2023-04-07T09:00:06;99468.41;;;11.70;46.31
11212;BME280;5663;50.864;12.096;2023-04-07T09:02:37;99440.41;;;11.74;46.10
11212;BME280;5663;50.864;12.096;2023-04-07T09:05:06;99467.09;;;12.11;44.22
11212;BME280;5663;50.864;12.096;2023-04-07T09:07:35;99471.50;;;12.24;44.14
11212;BME280;5663;50.864;12.096;2023-04-07T09:10:06;99469.31;;;12.32;43.22
11212;BME280;5663;50.864;12.096;2023-04-07T09:12:35;99466.47;;;12.37;42.84
11212;BME280;5663;50.864;12.096;2023-04-07T09:15:04;99465.50;;;12.54;42.90
11212;BME280;5663;50.864;12.096;2023-04-07T09:17:32;99432.75;;;12.48;42.22
11212;BME280;5663;50.864;12.096;2023-04-07T09:20:00;99463.69;;;12.85;41.41
11212;BME280;5663;50.864;12.096;2023-04-07T09:22:35;99464.75;;;12.96;40.00
11212;BME280;5663;50.864;12.096;2023-04-07T09:25:12;99459.84;;;13.06;41.76
11212;BME280;5663;50.864;12.096;2023-04-07T09:27:40;99460.59;;;13.22;41.70
11212;BME280;5663;50.864;12.096;2023-04-07T09:30:11;99452.16;;;13.33;40.70
11212;BME280;5663;50.864;12.096;2023-04-07T09:32:40;99461.38;;;13.53;40.70
11212;BME280;5663;50.864;12.096;2023-04-07T09:35:08;99465.47;;;13.57;39.84
11212;BME280;5663;50.864;12.096;2023-04-07T09:37:37;99452.00;;;13.63;39.20
11212;BME280;5663;50.864;12.096;2023-04-07T09:40:18;99452.00;;;13.77;39.35
11212;BME280;5663;50.864;12.096;2023-04-07T09:42:57;99446.84;;;13.90;39.47
11212;BME280;5663;50.864;12.096;2023-04-07T09:45:25;99457.34;;;14.03;39.04
11212;BME280;5663;50.864;12.096;2023-04-07T09:47:53;99455.84;;;14.13;38.63
11212;BME280;5663;50.864;12.096;2023-04-07T09:50:30;99449.06;;;14.23;36.62
11212;BME280;5663;50.864;12.096;2023-04-07T09:53:00;99447.00;;;14.28;36.96
11212;BME280;5663;50.864;12.096;2023-04-07T09:55:32;99449.84;;;14.11;36.26
11212;BME280;5663;50.864;12.096;2023-04-07T09:58:03;99447.81;;;14.16;37.70
11212;BME280;5663;50.864;12.096;2023-04-07T10:00:32;99452.97;;;14.30;36.59
11212;BME280;5663;50.864;12.096;2023-04-07T10:03:04;99455.28;;;14.35;36.17
11212;BME280;5663;50.864;12.096;2023-04-07T10:05:34;99439.72;;;14.46;35.93
11212;BME280;5663;50.864;12.096;2023-04-07T10:08:05;99443.97;;;14.62;35.73
11212;BME280;5663;50.864;12.096;2023-04-07T10:10:39;99449.66;;;14.68;36.21
11212;BME280;5663;50.864;12.096;2023-04-07T10:13:10;99459.31;;;14.93;35.68
11212;BME280;5663;50.864;12.096;2023-04-07T10:15:39;99451.53;;;14.92;35.57
11212;BME280;5663;50.864;12.096;2023-04-07T10:18:07;99457.94;;;14.88;35.45
11212;BME280;5663;50.864;12.096;2023-04-07T10:20:39;99452.50;;;15.03;35.97
11212;BME280;5663;50.864;12.096;2023-04-07T10:23:12;99445.50;;;15.04;34.76
11212;BME280;5663;50.864;12.096;2023-04-07T10:25:45;99455.13;;;15.16;34.92
11212;BME280;5663;50.864;12.096;2023-04-07T10:28:15;99440.53;;;15.38;35.42
11212;BME280;5663;50.864;12.096;2023-04-07T10:30:43;99445.22;;;15.58;34.93
11212;BME280;5663;50.864;12.096;2023-04-07T10:33:11;99423.31;;;15.59;34.29
11212;BME280;5663;50.864;12.096;2023-04-07T10:36:03;99410.09;;;15.61;33.07
11212;BME280;5663;50.864;12.096;2023-04-07T10:38:31;99436.19;;;15.75;34.25
11212;BME280;5663;50.864;12.096;2023-04-07T10:41:33;99437.69;;;15.66;31.83
11212;BME280;5663;50.864;12.096;2023-04-07T10:44:02;99437.66;;;15.79;34.63
11212;BME280;5663;50.864;12.096;2023-04-07T10:49:36;99441.72;;;15.96;34.64
11212;BME280;5663;50.864;12.096;2023-04-07T10:52:23;99449.91;;;16.15;33.04
11212;BME280;5663;50.864;12.096;2023-04-07T10:58:17;99441.50;;;16.58;31.81
11212;BME280;5663;50.864;12.096;2023-04-07T11:01:17;99440.97;;;16.42;32.06
11212;BME280;5663;50.864;12.096;2023-04-07T11:03:55;99437.78;;;16.49;32.64
11212;BME280;5663;50.864;12.096;2023-04-07T11:06:24;99443.16;;;16.59;32.75
11212;BME280;5663;50.864;12.096;2023-04-07T11:08:53;99450.47;;;16.56;33.03
11212;BME280;5663;50.864;12.096;2023-04-07T11:11:35;99442.06;;;16.50;32.43
11212;BME280;5663;50.864;12.096;2023-04-07T11:14:07;99446.25;;;16.53;33.12
11212;BME280;5663;50.864;12.096;2023-04-07T11:16:40;99435.28;;;16.48;33.06
11212;BME280;5663;50.864;12.096;2023-04-07T11:19:09;99438.81;;;16.47;33.50
11212;BME280;5663;50.864;12.096;2023-04-07T11:21:41;99412.31;;;16.39;33.14
11212;BME280;5663;50.864;12.096;2023-04-07T11:25:01;99433.53;;;16.71;31.85
11212;BME280;5663;50.864;12.096;2023-04-07T11:27:46;99441.72;;;16.55;32.58
11212;BME280;5663;50.864;12.096;2023-04-07T11:30:17;99431.94;;;16.57;33.18
11212;BME280;5663;50.864;12.096;2023-04-07T11:32:48;99439.88;;;16.68;33.05
11212;BME280;5663;50.864;12.096;2023-04-07T11:35:20;99427.50;;;16.82;32.64
11212;BME280;5663;50.864;12.096;2023-04-07T11:37:49;99432.53;;;16.85;32.99
11212;BME280;5663;50.864;12.096;2023-04-07T11:40:34;99442.56;;;16.91;32.36
11212;BME280;5663;50.864;12.096;2023-04-07T11:43:15;99432.19;;;17.01;32.28
11212;BME280;5663;50.864;12.096;2023-04-07T11:46:04;99425.13;;;16.90;31.21
11212;BME280;5663;50.864;12.096;2023-04-07T11:48:50;99425.72;;;16.82;31.63
11212;BME280;5663;50.864;12.096;2023-04-07T11:51:19;99410.44;;;16.87;32.35
11212;BME280;5663;50.864;12.096;2023-04-07T11:53:55;99426.13;;;17.22;33.21
11212;BME280;5663;50.864;12.096;2023-04-07T11:56:25;99421.09;;;17.53;32.42
11212;BME280;5663;50.864;12.096;2023-04-07T11:58:56;99426.34;;;17.64;32.00
11212;BME280;5663;50.864;12.096;2023-04-07T12:01:39;99430.88;;;17.51;31.12
11212;BME280;5663;50.864;12.096;2023-04-07T12:04:12;99428.53;;;17.48;32.10
11212;BME280;5663;50.864;12.096;2023-04-07T12:06:42;99429.44;;;17.58;31.51
11212;BME280;5663;50.864;12.096;2023-04-07T12:09:28;99431.84;;;17.39;30.01
11212;BME280;5663;50.864;12.096;2023-04-07T12:11:57;99426.59;;;17.39;32.23
11212;BME280;5663;50.864;12.096;2023-04-07T12:14:27;99431.16;;;17.48;31.30
11212;BME280;5663;50.864;12.096;2023-04-07T12:16:58;99372.84;;;17.20;31.38
11212;BME280;5663;50.864;12.096;2023-04-07T12:19:29;99421.09;;;17.64;31.22
11212;BME280;5663;50.864;12.096;2023-04-07T12:22:00;99423.94;;;17.61;30.47
11212;BME280;5663;50.864;12.096;2023-04-07T12:24:27;99422.78;;;17.32;30.41
11212;BME280;5663;50.864;12.096;2023-04-07T12:26:58;99427.06;;;17.21;30.71
11212;BME280;5663;50.864;12.096;2023-04-07T12:29:32;99426.84;;;17.13;30.89
11212;BME280;5663;50.864;12.096;2023-04-07T12:32:04;99428.97;;;16.97;30.32
11212;BME280;5663;50.864;12.096;2023-04-07T12:34:33;99419.03;;;16.89;30.31
11212;BME280;5663;50.864;12.096;2023-04-07T12:37:09;99429.16;;;16.83;30.82
11212;BME280;5663;50.864;12.096;2023-04-07T12:39:37;99422.03;;;16.85;30.94
11212;BME280;5663;50.864;12.096;2023-04-07T12:42:07;99432.31;;;16.99;30.57
11212;BME280;5663;50.864;12.096;2023-04-07T12:44:37;99423.13;;;16.93;30.47
11212;BME280;5663;50.864;12.096;2023-04-07T12:47:06;99399.06;;;16.75;30.33
11212;BME280;5663;50.864;12.096;2023-04-07T12:49:38;99419.41;;;16.96;31.62
11212;BME280;5663;50.864;12.096;2023-04-07T12:52:12;99419.09;;;17.12;31.12
11212;BME280;5663;50.864;12.096;2023-04-07T12:54:41;99427.28;;;17.07;30.70
11212;BME280;5663;50.864;12.096;2023-04-07T12:57:12;99393.13;;;17.07;30.92
11212;BME280;5663;50.864;12.096;2023-04-07T12:59:42;99419.66;;;17.38;30.30
11212;BME280;5663;50.864;12.096;2023-04-07T13:02:16;99414.41;;;17.38;29.65
11212;BME280;5663;50.864;12.096;2023-04-07T13:04:51;99407.22;;;17.62;30.63
11212;BME280;5663;50.864;12.096;2023-04-07T13:07:18;99415.69;;;17.88;30.70
11212;BME280;5663;50.864;12.096;2023-04-07T13:09:48;99413.13;;;17.98;30.25
11212;BME280;5663;50.864;12.096;2023-04-07T13:12:16;99415.09;;;17.96;30.10
11212;BME280;5663;50.864;12.096;2023-04-07T13:14:45;99412.66;;;18.04;30.07
11212;BME280;5663;50.864;12.096;2023-04-07T13:17:17;99417.19;;;18.02;29.99
11212;BME280;5663;50.864;12.096;2023-04-07T13:19:49;99410.19;;;17.91;29.54
11212;BME280;5663;50.864;12.096;2023-04-07T13:22:19;99417.25;;;17.57;30.26
11212;BME280;5663;50.864;12.096;2023-04-07T13:24:50;99416.06;;;17.39;30.54
11212;BME280;5663;50.864;12.096;2023-04-07T13:27:18;99394.94;;;17.29;31.34
11212;BME280;5663;50.864;12.096;2023-04-07T13:29:47;99418.00;;;17.37;30.69